Time;durP1;ratioP1;P1;durP2;ratioP2;P2;SDS_P1;SDS_P2;PMS_P1;PMS_P2;Temp;Humidity;BMP_temperature;BMP_pressure;BME280_temperature;BME280_humidity;BME280_pressure;Samples;Min_cycle;Max_cycle;Signal;HPM_P1;HPM_P2
2023/06/20 00:00:39;;;;;;;7.53;5.63;;;22.80;71.30;;;;;;6245553;22;20100;-71
2023/06/20 00:03:05;;;;;;;7.93;6.85;;;22.70;71.40;;;;;;6271024;22;20457;-72
2023/06/20 00:05:30;;;;;;;7.43;6.65;;;22.70;71.60;;;;;;6271395;22;20396;-72
2023/06/20 00:07:56;;;;;;;7.18;5.88;;;22.70;71.80;;;;;;6272719;22;20365;-71
2023/06/20 00:10:21;;;;;;;7.38;6.03;;;22.70;71.80;;;;;;6245312;22;20049;-72
2023/06/20 00:12:47;;;;;;;6.47;5.88;;;22.70;71.70;;;;;;6272829;22;20011;-72
2023/06/20 00:15:13;;;;;;;9.63;6.35;;;22.60;71.60;;;;;;6245115;22;20015;-71
2023/06/20 00:17:38;;;;;;;7.40;6.15;;;22.60;71.70;;;;;;6272238;22;20031;-72
2023/06/20 00:20:06;;;;;;;7.85;6.68;;;22.60;71.70;;;;;;6272531;22;20086;-71
2023/06/20 00:22:34;;;;;;;7.00;5.78;;;22.60;71.60;;;;;;6272578;22;20008;-71
2023/06/20 00:25:01;;;;;;;7.53;6.20;;;22.60;71.70;;;;;;6272436;22;20060;-72
2023/06/20 00:27:27;;;;;;;7.22;6.53;;;22.60;71.80;;;;;;6272258;22;19996;-72
2023/06/20 00:29:52;;;;;;;8.38;5.85;;;22.60;71.80;;;;;;6245186;22;20009;-72
2023/06/20 00:32:18;;;;;;;6.82;5.53;;;22.60;71.80;;;;;;6271588;22;20010;-72
2023/06/20 00:34:43;;;;;;;6.82;6.13;;;22.50;71.70;;;;;;6272726;22;20004;-72
2023/06/20 00:37:09;;;;;;;8.00;6.30;;;22.50;71.80;;;;;;6245043;22;20442;-72
2023/06/20 00:39:34;;;;;;;7.82;6.53;;;22.50;71.70;;;;;;6245132;22;20008;-72
2023/06/20 00:42:00;;;;;;;6.88;6.15;;;22.50;71.90;;;;;;6271989;22;20468;-72
2023/06/20 00:44:26;;;;;;;7.20;6.50;;;22.50;72.00;;;;;;6245149;22;20039;-72
2023/06/20 00:46:51;;;;;;;7.10;6.40;;;22.50;72.00;;;;;;6272036;22;20367;-72
2023/06/20 00:49:17;;;;;;;9.32;5.97;;;22.50;72.00;;;;;;6271994;22;20004;-72
2023/06/20 00:51:43;;;;;;;7.30;6.60;;;22.50;72.00;;;;;;6272494;22;20090;-72
2023/06/20 00:54:09;;;;;;;7.72;6.57;;;22.50;72.10;;;;;;6272436;22;20000;-71
2023/06/20 00:56:35;;;;;;;7.00;6.35;;;22.50;72.30;;;;;;6272227;22;20004;-71
2023/06/20 00:59:03;;;;;;;8.80;7.20;;;22.50;72.10;;;;;;6272392;22;20196;-71
2023/06/20 01:01:31;;;;;;;7.40;6.70;;;22.50;72.10;;;;;;6271710;22;19995;-71
2023/06/20 01:03:58;;;;;;;7.95;6.65;;;22.50;72.10;;;;;;6274250;22;19996;-72
2023/06/20 01:06:42;;;;;;;7.30;6.47;;;22.50;72.20;;;;;;6274326;22;19998;-71
2023/06/20 01:09:29;;;;;;;7.65;6.55;;;22.50;72.30;;;;;;6274039;22;20000;-72
2023/06/20 01:12:00;;;;;;;8.45;7.20;;;22.50;72.40;;;;;;6274198;22;20007;-72
2023/06/20 01:14:53;;;;;;;7.05;6.43;;;22.50;72.60;;;;;;6246741;22;20007;-71
2023/06/20 01:17:27;;;;;;;16.33;7.30;;;22.50;72.60;;;;;;6246445;22;20333;-71
2023/06/20 01:20:12;;;;;;;7.35;6.70;;;22.40;72.60;;;;;;6274216;22;19996;-71
2023/06/20 01:23:02;;;;;;;8.70;6.97;;;22.40;72.70;;;;;;6274662;22;20087;-70
2023/06/20 01:25:55;;;;;;;7.45;6.40;;;22.40;72.70;;;;;;6273986;22;20081;-71
2023/06/20 01:28:26;;;;;;;8.65;7.70;;;22.40;72.80;;;;;;6274117;22;20329;-71
2023/06/20 01:31:03;;;;;;;7.40;6.50;;;22.40;72.90;;;;;;6246620;22;20014;-71
2023/06/20 01:33:38;;;;;;;6.93;6.32;;;22.40;72.90;;;;;;6274058;22;20000;-70
2023/06/20 01:36:06;;;;;;;8.07;7.28;;;22.40;72.90;;;;;;6273832;22;20004;-70
2023/06/20 01:38:34;;;;;;;8.68;6.63;;;22.40;73.00;;;;;;6273875;22;20508;-71
2023/06/20 01:41:01;;;;;;;9.68;7.88;;;22.40;73.00;;;;;;6273872;22;20365;-70
2023/06/20 01:43:29;;;;;;;7.45;6.63;;;22.40;73.00;;;;;;6273784;22;20406;-71
2023/06/20 01:45:56;;;;;;;13.60;7.88;;;22.40;73.00;;;;;;6273303;22;20011;-71
2023/06/20 01:48:25;;;;;;;8.15;7.45;;;22.40;73.00;;;;;;6273922;22;20000;-70
2023/06/20 01:50:52;;;;;;;9.25;7.68;;;22.40;73.10;;;;;;6274192;22;20000;-70
2023/06/20 01:53:20;;;;;;;8.88;7.18;;;22.40;73.10;;;;;;6273528;22;20307;-71
2023/06/20 01:55:47;;;;;;;8.45;7.45;;;22.40;73.10;;;;;;6274137;22;20050;-70
2023/06/20 01:58:15;;;;;;;9.35;7.40;;;22.40;73.10;;;;;;6246313;22;20333;-71
2023/06/20 02:00:42;;;;;;;9.10;7.47;;;22.40;73.10;;;;;;6273266;22;20023;-70
2023/06/20 02:03:10;;;;;;;8.98;8.07;;;22.40;73.10;;;;;;6273583;22;19992;-70
2023/06/20 02:05:38;;;;;;;9.02;7.72;;;22.40;73.20;;;;;;6273774;22;20003;-71
2023/06/20 02:08:05;;;;;;;7.95;7.05;;;22.30;73.20;;;;;;6246621;22;19999;-70
2023/06/20 02:10:31;;;;;;;8.43;7.63;;;22.40;73.30;;;;;;6273851;22;20026;-70
2023/06/20 02:12:59;;;;;;;7.75;6.95;;;22.30;73.50;;;;;;6246058;22;20086;-70
2023/06/20 02:15:26;;;;;;;10.52;7.93;;;22.30;73.40;;;;;;6272952;22;20030;-71
2023/06/20 02:17:53;;;;;;;8.48;6.90;;;22.30;73.40;;;;;;6273967;22;20003;-70
2023/06/20 02:20:19;;;;;;;10.52;7.30;;;22.30;73.40;;;;;;6273514;22;19996;-70
2023/06/20 02:22:46;;;;;;;10.45;7.55;;;22.30;73.60;;;;;;6273864;22;20029;-70
2023/06/20 02:25:21;;;;;;;8.15;7.30;;;22.30;73.60;;;;;;6273263;22;20079;-70
2023/06/20 02:27:48;;;;;;;9.20;8.32;;;22.40;73.70;;;;;;6273839;22;20002;-70
2023/06/20 02:30:15;;;;;;;10.00;7.22;;;22.30;73.80;;;;;;6245515;22;20090;-70
2023/06/20 02:32:42;;;;;;;10.65;7.88;;;22.30;73.80;;;;;;6273824;22;20003;-70
2023/06/20 02:35:10;;;;;;;11.73;8.50;;;22.30;74.10;;;;;;6273333;22;20425;-70
2023/06/20 02:37:39;;;;;;;8.43;7.47;;;22.30;74.30;;;;;;6273535;22;20379;-71
2023/06/20 02:40:06;;;;;;;10.43;8.40;;;22.30;74.30;;;;;;6273044;22;20427;-70
2023/06/20 02:42:32;;;;;;;9.68;8.77;;;22.30;74.60;;;;;;6273250;22;20416;-70
2023/06/20 02:44:57;;;;;;;11.73;9.35;;;22.30;74.50;;;;;;6272743;22;20000;-70
2023/06/20 02:47:35;;;;;;;10.05;9.05;;;22.20;74.60;;;;;;6272974;22;19999;-71
2023/06/20 02:50:16;;;;;;;9.48;8.52;;;22.20;74.80;;;;;;6273169;22;20073;-70
2023/06/20 02:52:51;;;;;;;12.50;8.93;;;22.20;74.80;;;;;;6273554;22;20465;-71
2023/06/20 02:55:40;;;;;;;10.25;9.25;;;22.20;75.00;;;;;;6273006;22;20003;-70
2023/06/20 02:58:13;;;;;;;10.90;9.32;;;22.20;75.10;;;;;;6272473;22;20019;-70
2023/06/20 03:00:46;;;;;;;10.65;9.43;;;22.20;75.10;;;;;;6273195;22;20038;-70
2023/06/20 03:03:19;;;;;;;12.15;9.90;;;22.20;75.30;;;;;;6273228;22;19996;-71
2023/06/20 03:05:45;;;;;;;;;;;22.20;75.30;;;;;;6274031;22;20069;-71
2023/06/20 03:08:17;;;;;;;9.88;8.98;;;22.10;75.30;;;;;;6273178;22;20373;-70
2023/06/20 03:10:45;;;;;;;10.77;9.67;;;22.10;75.40;;;;;;6273306;22;20006;-70
2023/06/20 03:13:14;;;;;;;10.48;9.52;;;22.10;75.50;;;;;;6272279;22;20007;-70
2023/06/20 03:15:40;;;;;;;10.02;8.60;;;22.10;75.50;;;;;;6272983;22;20056;-71
2023/06/20 03:18:07;;;;;;;12.30;10.50;;;22.20;75.60;;;;;;6272929;22;20014;-70
2023/06/20 03:20:34;;;;;;;11.43;9.50;;;22.10;75.60;;;;;;6272983;22;20000;-70
2023/06/20 03:22:59;;;;;;;10.50;9.40;;;22.20;75.80;;;;;;6245824;22;20015;-70
2023/06/20 03:25:25;;;;;;;10.60;9.50;;;22.20;76.00;;;;;;6272569;22;20126;-70
2023/06/20 03:27:50;;;;;;;18.25;10.18;;;22.20;76.10;;;;;;6272700;22;20106;-71
2023/06/20 03:30:16;;;;;;;12.25;11.02;;;22.20;76.20;;;;;;6272455;22;20053;-71
2023/06/20 03:32:41;;;;;;;12.63;10.20;;;22.20;76.30;;;;;;6273385;22;20032;-70
2023/06/20 03:35:08;;;;;;;10.25;9.30;;;22.20;76.50;;;;;;6272452;22;20000;-70
2023/06/20 03:37:34;;;;;;;10.50;9.57;;;22.20;76.60;;;;;;6271521;22;20323;-70
2023/06/20 03:39:59;;;;;;;12.85;11.27;;;22.10;76.50;;;;;;6272021;22;20031;-70
2023/06/20 03:42:25;;;;;;;11.55;10.35;;;22.10;76.50;;;;;;6272065;22;20019;-70
2023/06/20 03:44:50;;;;;;;11.68;10.48;;;22.10;76.60;;;;;;6271848;22;20003;-70
2023/06/20 03:47:16;;;;;;;11.07;10.00;;;22.10;76.60;;;;;;6271654;22;20474;-70
2023/06/20 03:49:42;;;;;;;11.20;10.25;;;22.10;76.80;;;;;;6272831;22;20422;-70
2023/06/20 03:52:07;;;;;;;11.65;10.45;;;22.10;76.70;;;;;;6272691;22;20050;-70
2023/06/20 03:54:34;;;;;;;13.18;10.38;;;22.10;76.80;;;;;;6272568;22;20505;-70
2023/06/20 03:57:01;;;;;;;13.25;11.80;;;22.10;77.00;;;;;;6272198;22;20060;-70
2023/06/20 03:59:26;;;;;;;11.73;10.65;;;22.10;77.00;;;;;;6272837;22;20003;-70
2023/06/20 04:01:52;;;;;;;11.43;10.38;;;22.10;77.00;;;;;;6273029;22;20094;-70
2023/06/20 04:04:18;;;;;;;11.30;10.20;;;22.10;77.10;;;;;;6272571;22;20019;-70
2023/06/20 04:06:49;;;;;;;9.57;8.63;;;22.10;77.00;;;;;;6272810;22;20418;-70
2023/06/20 04:09:19;;;;;;;10.85;9.73;;;22.10;77.10;;;;;;6272111;22;20011;-70
2023/06/20 04:11:45;;;;;;;10.05;9.15;;;22.10;77.70;;;;;;6271791;22;20087;-70
2023/06/20 04:14:10;;;;;;;10.52;9.35;;;22.10;77.20;;;;;;6270889;22;20390;-70
2023/06/20 04:16:36;;;;;;;11.93;10.98;;;22.10;77.20;;;;;;6272762;22;20102;-71
2023/06/20 04:19:02;;;;;;;12.45;10.25;;;22.10;77.30;;;;;;6272324;22;20004;-71
2023/06/20 04:21:27;;;;;;;12.30;10.43;;;22.10;77.40;;;;;;6272515;22;19999;-70
2023/06/20 04:23:53;;;;;;;11.65;10.50;;;22.10;77.30;;;;;;6272362;22;20003;-70
2023/06/20 04:26:19;;;;;;;10.93;9.73;;;22.20;77.30;;;;;;6244782;22;20090;-70
2023/06/20 04:28:45;;;;;;;11.82;10.73;;;22.20;77.40;;;;;;6272647;22;20004;-70
2023/06/20 04:31:11;;;;;;;11.43;10.50;;;22.10;77.40;;;;;;6272356;22;20007;-70
2023/06/20 04:33:43;;;;;;;14.57;11.45;;;22.10;77.50;;;;;;6272351;22;20007;-70
2023/06/20 04:36:12;;;;;;;15.05;11.15;;;22.10;77.70;;;;;;6272023;22;20486;-70
2023/06/20 04:38:41;;;;;;;11.52;10.32;;;22.10;77.70;;;;;;6271955;22;20456;-70
2023/06/20 04:41:08;;;;;;;11.95;10.85;;;22.10;77.70;;;;;;6272122;22;20053;-71
2023/06/20 04:43:33;;;;;;;13.07;11.20;;;22.10;77.80;;;;;;6272104;22;20019;-71
2023/06/20 04:45:59;;;;;;;12.93;11.45;;;22.10;77.90;;;;;;6272197;22;20022;-70
2023/06/20 04:48:29;;;;;;;12.73;11.52;;;22.10;78.00;;;;;;6272264;22;20049;-71
2023/06/20 04:50:55;;;;;;;12.77;11.45;;;22.20;78.20;;;;;;6245038;22;20091;-71
2023/06/20 04:53:22;;;;;;;12.32;11.13;;;22.20;78.10;;;;;;6271794;22;20076;-70
2023/06/20 04:55:51;;;;;;;14.13;12.57;;;22.20;78.20;;;;;;6272524;22;20003;-70
2023/06/20 04:58:17;;;;;;;10.18;9.38;;;22.20;78.40;;;;;;6271820;22;19992;-70
2023/06/20 05:00:42;;;;;;;13.98;12.57;;;22.30;78.30;;;;;;6245260;22;20076;-70
2023/06/20 05:03:08;;;;;;;13.13;11.82;;;22.30;78.40;;;;;;6272018;22;20362;-70
2023/06/20 05:05:33;;;;;;;13.40;12.10;;;22.30;78.40;;;;;;6271845;22;20078;-72
2023/06/20 05:07:59;;;;;;;13.65;12.23;;;22.30;78.40;;;;;;6271503;22;20483;-72
2023/06/20 05:10:25;;;;;;;11.70;10.80;;;22.30;78.30;;;;;;6271983;22;20049;-72
2023/06/20 05:12:51;;;;;;;11.55;10.50;;;22.40;78.30;;;;;;6272280;22;20004;-70
2023/06/20 05:15:23;;;;;;;12.73;11.63;;;22.40;78.20;;;;;;6271776;22;20015;-69
2023/06/20 05:17:52;;;;;;;12.43;11.20;;;22.50;78.30;;;;;;6272231;22;20006;-70
2023/06/20 05:20:18;;;;;;;13.95;12.75;;;22.50;78.30;;;;;;6271853;22;20007;-70
2023/06/20 05:22:44;;;;;;;13.10;11.80;;;22.60;78.40;;;;;;6272006;22;20275;-71
2023/06/20 05:25:09;;;;;;;14.02;12.70;;;22.60;78.40;;;;;;6272062;22;20000;-70
2023/06/20 05:27:35;;;;;;;13.25;12.05;;;22.60;78.30;;;;;;6272003;22;20012;-73
2023/06/20 05:30:01;;;;;;;13.52;12.20;;;22.60;78.30;;;;;;6271813;22;20030;-72
2023/06/20 05:32:26;;;;;;;13.95;12.85;;;22.60;78.30;;;;;;6244550;22;20007;-71
2023/06/20 05:34:53;;;;;;;13.80;12.48;;;22.60;78.20;;;;;;6272196;22;20012;-72
2023/06/20 05:37:18;;;;;;;15.13;13.63;;;22.60;78.30;;;;;;6244150;22;20014;-72
2023/06/20 05:39:44;;;;;;;15.40;13.90;;;22.60;78.30;;;;;;6272344;22;20297;-70
2023/06/20 05:42:10;;;;;;;13.98;12.75;;;22.70;78.30;;;;;;6244540;22;20034;-71
2023/06/20 05:44:36;;;;;;;14.63;13.23;;;22.70;78.40;;;;;;6271893;22;20434;-71
2023/06/20 05:47:03;;;;;;;16.83;15.20;;;22.70;78.30;;;;;;6270944;22;20002;-71
2023/06/20 05:49:29;;;;;;;15.45;14.05;;;22.80;78.50;;;;;;6272459;22;20000;-71
2023/06/20 05:51:54;;;;;;;14.70;13.32;;;22.80;78.40;;;;;;6271749;22;20006;-71
2023/06/20 05:54:22;;;;;;;14.43;13.02;;;22.80;78.20;;;;;;6273577;22;20426;-70
2023/06/20 05:56:49;;;;;;;14.65;13.25;;;22.80;78.30;;;;;;6274158;22;20000;-70
2023/06/20 05:59:15;;;;;;;15.25;13.90;;;22.90;78.40;;;;;;6245947;22;20294;-70
2023/06/20 06:01:40;;;;;;;16.45;14.85;;;22.90;78.90;;;;;;6273793;22;20000;-70
2023/06/20 06:04:07;;;;;;;15.43;14.02;;;22.90;78.40;;;;;;6246199;22;20000;-70
2023/06/20 06:06:32;;;;;;;15.93;14.57;;;22.90;78.60;;;;;;6273151;22;20000;-70
2023/06/20 06:08:58;;;;;;;16.15;14.75;;;22.90;78.50;;;;;;6273659;22;20079;-71
2023/06/20 06:11:25;;;;;;;17.17;15.35;;;23.00;78.50;;;;;;6273786;22;20012;-70
2023/06/20 06:13:51;;;;;;;16.10;14.55;;;23.10;78.40;;;;;;6273671;22;20003;-71
2023/06/20 06:16:17;;;;;;;16.25;14.85;;;23.20;78.60;;;;;;6273027;22;20035;-71
2023/06/20 06:18:43;;;;;;;17.10;15.60;;;23.20;78.40;;;;;;6273586;22;20000;-70
2023/06/20 06:21:09;;;;;;;17.20;15.70;;;23.20;78.20;;;;;;6272780;22;20003;-70
2023/06/20 06:23:35;;;;;;;15.60;14.25;;;23.20;78.40;;;;;;6273408;22;20003;-70
2023/06/20 06:26:00;;;;;;;16.52;14.98;;;23.30;78.30;;;;;;6245909;22;20011;-70
2023/06/20 06:28:28;;;;;;;16.58;15.10;;;23.40;78.30;;;;;;6273482;22;20003;-70
2023/06/20 06:30:54;;;;;;;17.13;15.63;;;23.40;78.40;;;;;;6246367;22;20318;-70
2023/06/20 06:33:20;;;;;;;18.40;16.48;;;23.50;78.40;;;;;;6273023;22;20421;-71
2023/06/20 06:35:46;;;;;;;17.77;15.70;;;23.60;78.10;;;;;;6272782;22;20007;-71
2023/06/20 06:38:12;;;;;;;16.55;15.00;;;23.70;78.10;;;;;;6272693;22;20793;-70
2023/06/20 06:40:38;;;;;;;15.82;14.30;;;23.80;78.10;;;;;;6273559;22;19999;-70
2023/06/20 06:43:04;;;;;;;17.75;16.05;;;23.90;78.30;;;;;;6272794;22;20011;-70
2023/06/20 06:45:29;;;;;;;19.38;15.52;;;24.00;78.20;;;;;;6273162;22;20459;-71
2023/06/20 06:47:55;;;;;;;18.50;16.60;;;24.00;77.90;;;;;;6245783;22;20004;-70
2023/06/20 06:50:20;;;;;;;17.10;15.63;;;24.20;77.90;;;;;;6272406;22;20004;-70
2023/06/20 06:52:46;;;;;;;20.65;18.90;;;24.20;77.60;;;;;;6273380;22;20019;-70
2023/06/20 06:55:11;;;;;;;18.13;16.55;;;24.20;77.50;;;;;;6272879;22;20039;-71
2023/06/20 06:57:37;;;;;;;19.70;17.77;;;24.30;77.40;;;;;;6273279;22;20006;-70
2023/06/20 07:00:11;;;;;;;18.48;16.63;;;24.30;77.50;;;;;;6240742;22;20448;-70
2023/06/20 07:02:38;;;;;;;16.95;15.50;;;24.40;77.50;;;;;;6271920;22;20000;-71
2023/06/20 07:05:05;;;;;;;19.48;17.77;;;24.50;77.40;;;;;;6243431;22;19999;-71
2023/06/20 07:07:30;;;;;;;18.65;17.23;;;24.70;77.30;;;;;;6242941;22;20004;-71
2023/06/20 07:09:56;;;;;;;16.95;15.25;;;24.90;77.00;;;;;;6271308;22;20326;-71
2023/06/20 07:12:21;;;;;;;16.48;15.23;;;25.00;76.80;;;;;;6272375;22;20421;-71
2023/06/20 07:14:50;;;;;;;19.15;17.13;;;25.00;76.60;;;;;;6272310;22;20271;-71
2023/06/20 07:17:15;;;;;;;17.55;16.13;;;25.20;76.50;;;;;;6270726;22;20064;-71
2023/06/20 07:19:43;;;;;;;17.85;16.35;;;25.20;76.50;;;;;;6269766;22;20426;-71
2023/06/20 07:22:09;;;;;;;15.80;14.27;;;25.40;76.40;;;;;;6272779;22;20011;-71
2023/06/20 07:24:34;;;;;;;17.10;15.32;;;25.50;76.10;;;;;;6272631;22;19996;-72
2023/06/20 07:27:00;;;;;;;15.57;14.23;;;25.60;76.10;;;;;;6245379;22;20039;-71
2023/06/20 07:29:25;;;;;;;16.13;14.73;;;25.60;75.90;;;;;;6272246;22;20000;-70
2023/06/20 07:31:51;;;;;;;15.65;14.35;;;25.70;76.40;;;;;;6271901;22;19996;-71
2023/06/20 07:34:16;;;;;;;15.45;13.85;;;25.70;75.80;;;;;;6271484;22;20000;-71
2023/06/20 07:36:42;;;;;;;15.63;14.23;;;25.80;75.70;;;;;;6272313;22;19995;-71
2023/06/20 07:39:07;;;;;;;15.52;14.23;;;25.90;75.70;;;;;;6244178;22;20106;-71
2023/06/20 07:41:33;;;;;;;16.30;14.88;;;25.90;75.50;;;;;;6242416;22;20007;-71
2023/06/20 07:43:58;;;;;;;16.25;14.65;;;25.90;75.60;;;;;;6271695;22;20000;-71
2023/06/20 07:46:25;;;;;;;16.73;15.27;;;26.00;75.80;;;;;;6272518;22;20002;-70
2023/06/20 07:48:51;;;;;;;17.05;15.55;;;26.10;75.50;;;;;;6270999;22;20129;-70
2023/06/20 07:51:16;;;;;;;16.98;15.30;;;26.20;75.10;;;;;;6271304;22;20417;-70
2023/06/20 07:53:42;;;;;;;16.10;14.57;;;26.20;74.70;;;;;;6271548;22;20003;-70
2023/06/20 07:56:07;;;;;;;15.35;13.85;;;26.20;74.70;;;;;;6271891;22;20008;-70
2023/06/20 07:58:33;;;;;;;18.92;17.10;;;26.20;75.20;;;;;;6271803;22;20081;-69
2023/06/20 08:01:00;;;;;;;17.15;15.77;;;26.20;75.40;;;;;;6242720;22;20026;-70
2023/06/20 08:03:26;;;;;;;17.10;15.80;;;26.30;76.00;;;;;;6270059;22;20010;-70
2023/06/20 08:05:51;;;;;;;15.65;14.23;;;26.40;75.10;;;;;;6272358;22;20023;-70
2023/06/20 08:08:17;;;;;;;17.02;15.27;;;26.40;75.00;;;;;;6271986;22;19999;-70
2023/06/20 08:10:43;;;;;;;14.88;13.43;;;26.40;75.20;;;;;;6272372;22;20000;-71
2023/06/20 08:13:08;;;;;;;14.93;13.65;;;26.50;75.50;;;;;;6271584;22;20425;-71
2023/06/20 08:15:34;;;;;;;14.40;13.07;;;26.60;75.40;;;;;;6270997;22;20022;-71
2023/06/20 08:17:59;;;;;;;14.60;13.30;;;26.60;75.50;;;;;;6270722;22;20003;-71
2023/06/20 08:20:25;;;;;;;14.20;13.05;;;26.60;75.50;;;;;;6271635;22;20000;-71
2023/06/20 08:22:50;;;;;;;13.90;12.57;;;26.70;75.40;;;;;;6272104;22;20027;-70
2023/06/20 08:25:16;;;;;;;11.55;10.07;;;26.80;75.40;;;;;;6243159;22;20002;-71
2023/06/20 08:27:41;;;;;;;11.00;9.93;;;26.80;75.30;;;;;;6271231;22;20000;-71
2023/06/20 08:30:07;;;;;;;11.00;9.93;;;26.90;75.30;;;;;;6270710;22;19996;-71
2023/06/20 08:32:33;;;;;;;10.90;9.98;;;26.90;75.10;;;;;;6271212;22;20098;-71
2023/06/20 08:34:58;;;;;;;11.00;10.05;;;26.90;75.10;;;;;;6244202;22;20093;-71
2023/06/20 08:37:24;;;;;;;9.68;8.45;;;27.00;75.40;;;;;;6270962;22;20000;-70
2023/06/20 08:39:50;;;;;;;7.43;6.82;;;27.10;75.30;;;;;;6272089;22;20371;-70
2023/06/20 08:42:15;;;;;;;6.85;6.25;;;27.20;74.90;;;;;;6271128;22;20534;-71
2023/06/20 08:44:41;;;;;;;8.32;7.50;;;27.20;74.40;;;;;;6245002;22;19999;-71
2023/06/20 08:47:06;;;;;;;10.25;9.35;;;27.30;74.30;;;;;;6269757;22;20389;-71
2023/06/20 08:49:32;;;;;;;8.85;8.05;;;27.40;74.30;;;;;;6271438;22;20031;-71
2023/06/20 08:52:02;;;;;;;7.22;6.63;;;27.40;74.10;;;;;;6244185;22;20003;-71
2023/06/20 08:54:32;;;;;;;9.27;8.48;;;27.50;74.10;;;;;;6271292;22;19996;-71
2023/06/20 08:56:59;;;;;;;10.10;9.10;;;27.60;73.60;;;;;;6271096;22;20000;-72
2023/06/20 08:59:25;;;;;;;8.68;7.95;;;27.70;73.30;;;;;;6269870;22;20449;-71
2023/06/20 09:01:50;;;;;;;8.57;7.78;;;27.70;73.10;;;;;;6271610;22;20078;-71
2023/06/20 09:04:17;;;;;;;8.93;8.05;;;27.80;73.30;;;;;;6270335;22;20421;-70
2023/06/20 09:06:43;;;;;;;10.15;9.20;;;27.90;73.20;;;;;;6271552;22;20000;-70
2023/06/20 09:09:17;;;;;;;10.15;9.00;;;27.90;72.60;;;;;;6269736;22;20034;-71
2023/06/20 09:11:52;;;;;;;10.13;9.43;;;28.00;72.20;;;;;;6271815;22;20452;-71
2023/06/20 09:14:18;;;;;;;10.57;9.68;;;28.10;72.00;;;;;;6270496;22;20089;-71
2023/06/20 09:16:47;;;;;;;10.23;8.35;;;28.10;72.20;;;;;;6272405;22;20004;-71
2023/06/20 09:19:13;;;;;;;10.07;9.27;;;28.20;72.40;;;;;;6243211;22;20007;-71
2023/06/20 09:21:39;;;;;;;10.63;9.57;;;28.40;72.70;;;;;;6244332;22;20167;-70
2023/06/20 09:24:06;;;;;;;11.25;9.85;;;28.40;72.00;;;;;;6273082;22;20019;-71
2023/06/20 09:26:33;;;;;;;8.68;7.78;;;28.50;71.10;;;;;;6273518;22;19999;-71
2023/06/20 09:29:10;;;;;;;8.02;7.32;;;28.40;70.80;;;;;;6245645;22;20004;-71
2023/06/20 09:31:49;;;;;;;9.27;8.48;;;28.40;71.00;;;;;;6271525;22;20537;-71
2023/06/20 09:34:18;;;;;;;9.70;8.88;;;28.30;70.80;;;;;;6273556;22;20090;-71
2023/06/20 09:36:47;;;;;;;9.25;8.35;;;28.40;71.00;;;;;;6273956;22;20026;-71
2023/06/20 09:39:20;;;;;;;8.45;7.75;;;28.40;71.30;;;;;;6272762;22;20056;-71
2023/06/20 09:41:52;;;;;;;10.18;8.40;;;28.50;71.60;;;;;;6271745;22;20011;-70
2023/06/20 09:44:19;;;;;;;8.93;8.13;;;28.50;71.40;;;;;;6273270;22;20520;-71
2023/06/20 09:46:45;;;;;;;8.30;7.53;;;28.60;71.40;;;;;;6273492;22;19999;-71
2023/06/20 09:49:15;;;;;;;7.78;6.85;;;28.70;71.50;;;;;;6273632;22;19996;-71
2023/06/20 09:51:50;;;;;;;8.73;6.80;;;28.80;71.40;;;;;;6273529;22;20004;-70
2023/06/20 09:54:57;;;;;;;6.30;5.68;;;29.00;70.70;;;;;;6244703;22;20130;-70
2023/06/20 09:57:38;;;;;;;6.63;5.93;;;29.10;71.00;;;;;;6125447;23;20028;-71
2023/06/20 10:00:10;;;;;;;6.30;5.80;;;29.20;70.40;;;;;;6149755;23;20021;-70
2023/06/20 10:02:37;;;;;;;6.15;5.65;;;29.30;69.70;;;;;;6149253;23;20014;-71
2023/06/20 10:05:03;;;;;;;6.00;5.20;;;29.40;69.80;;;;;;6147655;23;20152;-71
2023/06/20 10:07:29;;;;;;;6.15;5.65;;;29.60;69.50;;;;;;6147704;23;20006;-70
2023/06/20 10:09:56;;;;;;;7.22;6.53;;;29.60;68.80;;;;;;6149441;23;20001;-70
2023/06/20 10:12:23;;;;;;;6.97;6.28;;;29.60;68.60;;;;;;6149420;23;20009;-70
2023/06/20 10:14:49;;;;;;;6.93;6.25;;;29.50;68.80;;;;;;6148462;23;20012;-69
2023/06/20 10:17:15;;;;;;;10.93;5.93;;;29.50;69.10;;;;;;6149579;23;20006;-70
2023/06/20 10:19:47;;;;;;;8.10;5.82;;;29.50;69.30;;;;;;6150010;23;20013;-70
2023/06/20 10:22:14;;;;;;;9.65;5.95;;;29.70;68.80;;;;;;6124014;23;20101;-70
2023/06/20 10:24:43;;;;;;;6.70;6.07;;;29.70;68.60;;;;;;6148145;23;20009;-70
2023/06/20 10:27:08;;;;;;;5.97;5.38;;;29.70;68.10;;;;;;6162467;22;20008;-70
2023/06/20 10:29:41;;;;;;;6.45;5.95;;;29.80;68.10;;;;;;6272556;22;20000;-70
2023/06/20 10:32:08;;;;;;;5.70;5.28;;;29.90;67.80;;;;;;6271982;22;20003;-70
2023/06/20 10:34:39;;;;;;;6.47;5.85;;;30.00;68.00;;;;;;6271871;22;20011;-70
2023/06/20 10:37:16;;;;;;;7.50;6.88;;;30.00;67.60;;;;;;6271297;22;20010;-70
2023/06/20 10:39:55;;;;;;;6.55;6.00;;;29.90;67.80;;;;;;6272285;22;20000;-70
2023/06/20 10:42:50;;;;;;;6.00;5.32;;;29.80;68.00;;;;;;6271384;22;20015;-70
2023/06/20 10:45:23;;;;;;;6.30;5.50;;;29.70;68.60;;;;;;6226077;22;20027;-70
2023/06/20 10:47:49;;;;;;;;;;;29.70;68.70;;;;;;6270643;22;20053;-70
2023/06/20 10:50:15;;;;;;;5.75;4.10;;;29.80;68.80;;;;;;6244445;22;19902;-70
2023/06/20 10:52:41;;;;;;;4.68;4.05;;;29.90;68.00;;;;;;6243616;22;20010;-71
2023/06/20 10:55:16;;;;;;;5.40;4.90;;;29.90;67.40;;;;;;6272358;22;20078;-71
2023/06/20 10:57:46;;;;;;;4.57;4.18;;;29.80;67.30;;;;;;6270238;22;20003;-71
2023/06/20 11:00:17;;;;;;;3.70;3.30;;;29.80;67.70;;;;;;6271712;22;20031;-71
2023/06/20 11:02:44;;;;;;;4.03;3.72;;;29.80;67.40;;;;;;6271640;22;20014;-71
2023/06/20 11:05:10;;;;;;;4.60;4.13;;;29.90;68.50;;;;;;6271996;22;19996;-71
2023/06/20 11:08:00;;;;;;;3.65;3.35;;;30.10;67.50;;;;;;6272445;22;20079;-71
2023/06/20 11:10:36;;;;;;;3.85;3.53;;;30.30;67.80;;;;;;6251486;22;19995;-70
2023/06/20 11:13:04;;;;;;;4.85;3.85;;;30.40;67.30;;;;;;6271099;22;20386;-71
2023/06/20 11:15:35;;;;;;;6.03;3.80;;;30.50;66.90;;;;;;6270948;22;20007;-70
2023/06/20 11:18:04;;;;;;;4.32;4.00;;;30.40;65.90;;;;;;6271343;22;20075;-71
2023/06/20 11:20:29;;;;;;;3.33;3.03;;;30.30;65.70;;;;;;6270032;22;20080;-70
2023/06/20 11:22:58;;;;;;;3.58;3.28;;;30.20;66.10;;;;;;6272403;22;19999;-71
2023/06/20 11:25:29;;;;;;;3.67;3.03;;;30.20;66.30;;;;;;6244767;22;20027;-70
2023/06/20 11:27:56;;;;;;;2.80;2.53;;;30.40;66.90;;;;;;6272091;22;20429;-71
2023/06/20 11:30:29;;;;;;;3.33;3.03;;;30.40;65.80;;;;;;6270357;22;20170;-71
2023/06/20 11:33:03;;;;;;;3.45;3.15;;;30.50;65.60;;;;;;6271622;22;20011;-70
2023/06/20 11:35:55;;;;;;;2.88;2.67;;;30.50;65.90;;;;;;6271250;22;20000;-70
2023/06/20 11:38:26;;;;;;;3.90;3.00;;;30.50;66.00;;;;;;6272176;22;20004;-70
2023/06/20 11:41:08;;;;;;;3.53;3.22;;;30.50;65.70;;;;;;6243231;22;20594;-70
2023/06/20 11:43:36;;;;;;;4.13;3.72;;;30.30;65.80;;;;;;6271731;22;20004;-71
2023/06/20 11:46:02;;;;;;;3.92;2.60;;;30.40;65.90;;;;;;6272506;22;20071;-71
2023/06/20 11:48:28;;;;;;;3.72;2.97;;;30.30;66.00;;;;;;6271772;22;20026;-70
2023/06/20 11:50:57;;;;;;;3.83;3.38;;;30.30;66.00;;;;;;6272163;22;19996;-71
2023/06/20 11:53:29;;;;;;;4.15;3.22;;;30.30;66.00;;;;;;6270711;22;19995;-70
2023/06/20 11:56:07;;;;;;;3.27;2.80;;;30.30;66.00;;;;;;6271504;22;20440;-71
2023/06/20 11:58:37;;;;;;;4.88;2.92;;;30.30;66.10;;;;;;6245027;22;20003;-70
2023/06/20 12:01:09;;;;;;;3.42;2.70;;;30.40;65.90;;;;;;6271821;22;20007;-71
2023/06/20 12:03:36;;;;;;;3.65;3.35;;;30.50;65.60;;;;;;6271117;22;20025;-70
2023/06/20 12:06:01;;;;;;;3.03;2.50;;;30.50;65.20;;;;;;6245186;22;20000;-71
2023/06/20 12:08:34;;;;;;;4.78;3.17;;;30.60;64.90;;;;;;6272002;22;20000;-71
2023/06/20 12:11:02;;;;;;;3.15;2.72;;;30.60;64.80;;;;;;6272116;22;20010;-71
2023/06/20 12:13:28;;;;;;;4.10;3.20;;;30.70;64.90;;;;;;6270127;22;20007;-71
2023/06/20 12:15:54;;;;;;;3.05;2.75;;;30.70;64.60;;;;;;6270491;22;19999;-71
2023/06/20 12:18:20;;;;;;;4.68;3.08;;;30.70;64.50;;;;;;6271579;22;19995;-71
2023/06/20 12:20:46;;;;;;;2.97;2.70;;;30.70;64.40;;;;;;6272144;22;19992;-71
2023/06/20 12:23:12;;;;;;;5.28;3.17;;;30.80;64.50;;;;;;6270805;22;20011;-71
2023/06/20 12:25:38;;;;;;;4.05;2.85;;;30.80;64.40;;;;;;6270774;22;19999;-71
2023/06/20 12:28:04;;;;;;;3.10;2.90;;;30.90;64.40;;;;;;6271556;22;20000;-71
2023/06/20 12:30:30;;;;;;;2.67;2.47;;;30.90;64.40;;;;;;6272404;22;20003;-71
2023/06/20 12:32:58;;;;;;;3.05;2.85;;;31.00;64.50;;;;;;6270940;22;20015;-71
2023/06/20 12:35:27;;;;;;;3.15;2.85;;;31.00;63.90;;;;;;6270912;22;20138;-71
2023/06/20 12:37:52;;;;;;;3.30;3.10;;;31.00;63.90;;;;;;6271204;22;19991;-71
2023/06/20 12:40:18;;;;;;;2.95;2.67;;;31.00;63.90;;;;;;6271403;22;20046;-71
2023/06/20 12:42:43;;;;;;;3.05;2.83;;;31.00;63.90;;;;;;6272361;22;20011;-70